Thomas, West Virginia
Current Conditions -  °F | °C
As of 9:55 PM on Thursday 27 Nov 2014 (Local Time) from KW99 Reporting Station
Overcast Overcast  
Wind Chill: 26°   Ceiling: 7000
Heat Index: 33°   Visibility: 10mi
Dew Point: 19°   Wind: 8mph
Humidity: 58%   Direction: 310°NW
Pressure: 30.23"   Gusts: NA
Location:  39.15°N, 79.5°W
Report Text: KW99 280255Z AUTO 31007KT 10SM OVC070 01/M07 A3023 RMK AO2 6//// T00051070
Loading
Personal Weather Stations






























Interactive Weather Map New forecast layout! Learn more

10-Day Weather Forecast

Advertisements
Track Severe Weather on mobile